createdAt,value
2019-02-28T00:01:04.638Z,4.31
2019-02-28T00:03:33.555Z,4.32
2019-02-28T00:06:02.245Z,4.30
2019-02-28T00:08:31.011Z,4.29
2019-02-28T00:11:02.056Z,4.29
2019-02-28T00:13:30.152Z,4.23
2019-02-28T00:16:00.195Z,4.24
2019-02-28T00:18:29.287Z,4.25
2019-02-28T00:20:57.924Z,4.33
2019-02-28T00:23:26.591Z,4.38
2019-02-28T00:25:55.347Z,4.28
2019-02-28T00:28:25.878Z,4.28
2019-02-28T00:30:54.437Z,4.31
2019-02-28T00:33:23.017Z,4.37
2019-02-28T00:35:51.572Z,4.37
2019-02-28T00:38:20.236Z,4.59
2019-02-28T00:40:48.818Z,4.69
2019-02-28T00:43:17.451Z,4.69
2019-02-28T00:45:46.056Z,4.78
2019-02-28T00:48:14.679Z,4.80
2019-02-28T00:50:43.263Z,4.79
2019-02-28T00:53:11.924Z,4.81
2019-02-28T00:55:40.640Z,4.79
2019-02-28T00:58:09.235Z,4.90
2019-02-28T01:00:38.212Z,4.92
2019-02-28T01:03:06.882Z,4.91
2019-02-28T01:05:36.590Z,4.93
2019-02-28T01:08:06.035Z,4.94
2019-02-28T01:10:38.715Z,4.92
2019-02-28T01:13:05.468Z,4.97
2019-02-28T01:15:34.137Z,5.00
2019-02-28T01:18:02.733Z,4.99
2019-02-28T01:20:31.304Z,4.96
2019-02-28T01:22:59.929Z,4.95
2019-02-28T01:25:28.575Z,4.98
2019-02-28T01:27:57.136Z,5.03
2019-02-28T01:30:25.799Z,5.03
2019-02-28T01:32:54.428Z,5.05
2019-02-28T01:35:23.002Z,5.01
2019-02-28T01:37:52.359Z,5.06
2019-02-28T01:40:21.751Z,5.07
2019-02-28T01:42:53.938Z,5.06
2019-02-28T01:45:20.705Z,5.04
2019-02-28T01:47:51.774Z,5.00
2019-02-28T01:50:19.715Z,5.01
2019-02-28T01:52:48.478Z,4.95
2019-02-28T01:55:17.118Z,4.95
2019-02-28T01:57:45.675Z,4.93
2019-02-28T02:00:20.422Z,4.93
2019-02-28T02:02:49.000Z,4.92
2019-02-28T02:05:18.050Z,4.92
2019-02-28T02:07:46.685Z,4.92
2019-02-28T02:10:21.708Z,5.09
2019-02-28T02:12:51.881Z,5.09
2019-02-28T02:15:20.926Z,5.09
2019-02-28T02:17:49.575Z,5.06
2019-02-28T02:20:20.089Z,5.06
2019-02-28T02:22:48.653Z,4.99
2019-02-28T02:25:17.422Z,5.04
2019-02-28T02:27:46.013Z,5.22
2019-02-28T02:30:24.752Z,5.19
2019-02-28T02:32:53.271Z,5.24
2019-02-28T02:35:21.910Z,5.31
2019-02-28T02:37:50.527Z,5.31
2019-02-28T02:40:22.937Z,5.29
2019-02-28T02:42:50.091Z,5.29
2019-02-28T02:45:18.975Z,5.30
2019-02-28T02:47:47.622Z,5.35
2019-02-28T02:50:16.460Z,5.34
2019-02-28T02:52:45.124Z,5.39
2019-02-28T02:55:14.920Z,5.38
2019-02-28T02:57:50.409Z,5.50
2019-02-28T03:00:16.864Z,5.52
2019-02-28T03:02:45.925Z,5.55
2019-02-28T03:05:15.150Z,5.63
2019-02-28T03:07:43.816Z,5.58
2019-02-28T03:10:17.657Z,5.62
2019-02-28T03:12:45.451Z,5.72
2019-02-28T03:15:24.963Z,5.76
2019-02-28T03:17:49.354Z,5.70
2019-02-28T03:20:18.300Z,5.71
2019-02-28T03:22:46.969Z,5.71
2019-02-28T03:25:18.800Z,5.75
2019-02-28T03:27:55.127Z,5.80
2019-02-28T03:30:27.678Z,5.77
2019-02-28T03:32:49.655Z,5.76
2019-02-28T03:35:18.376Z,5.72
2019-02-28T03:37:47.241Z,5.72
2019-02-28T03:40:15.951Z,5.75
2019-02-28T03:42:44.534Z,5.77
2019-02-28T03:45:17.354Z,5.75
2019-02-28T03:47:45.969Z,5.76
2019-02-28T03:50:14.913Z,5.69
2019-02-28T03:52:44.661Z,5.68
2019-02-28T03:55:14.611Z,5.70
2019-02-28T03:57:43.425Z,5.75
2019-02-28T04:00:18.045Z,5.78
2019-02-28T04:02:47.079Z,5.79
2019-02-28T04:05:15.707Z,5.78
2019-02-28T04:07:44.319Z,5.84
2019-02-28T04:10:16.746Z,5.86
2019-02-28T04:12:46.903Z,5.87
2019-02-28T04:15:20.508Z,5.83
2019-02-28T04:17:49.051Z,5.85
2019-02-28T04:20:18.090Z,5.92
2019-02-28T04:22:46.752Z,5.92
2019-02-28T04:25:15.378Z,5.95
2019-02-28T04:27:43.988Z,5.92
2019-02-28T04:30:14.350Z,5.86
2019-02-28T04:32:42.984Z,5.86
2019-02-28T04:35:12.519Z,5.82
2019-02-28T04:37:46.780Z,5.80
2019-02-28T04:40:13.563Z,5.78
2019-02-28T04:42:42.118Z,5.75
2019-02-28T04:45:13.126Z,5.71
2019-02-28T04:47:41.888Z,5.67
2019-02-28T04:50:12.212Z,5.65
2019-02-28T04:52:46.755Z,5.59
2019-02-28T04:55:12.184Z,5.53
2019-02-28T04:57:42.395Z,5.49
2019-02-28T05:00:18.386Z,5.44
2019-02-28T05:02:46.944Z,5.38
2019-02-28T05:05:15.588Z,5.29
2019-02-28T05:07:44.272Z,5.29
2019-02-28T05:10:13.404Z,5.20
2019-02-28T05:12:42.033Z,5.13
2019-02-28T05:15:15.043Z,5.15
2019-02-28T05:17:43.676Z,5.17
2019-02-28T05:20:12.469Z,5.14
2019-02-28T05:22:41.293Z,5.14
2019-02-28T05:25:17.420Z,5.11
2019-02-28T05:27:44.255Z,5.03
2019-02-28T05:30:19.542Z,4.98
2019-02-28T05:32:47.599Z,4.93
2019-02-28T05:35:16.149Z,4.87
2019-02-28T05:37:48.185Z,4.86
2019-02-28T05:40:15.967Z,4.81
2019-02-28T05:42:44.613Z,4.85
2019-02-28T05:45:14.866Z,4.86
2019-02-28T05:47:46.625Z,4.90
2019-02-28T05:50:16.823Z,4.94
2019-02-28T05:52:44.461Z,5.00
2019-02-28T05:55:13.462Z,5.10
2019-02-28T05:57:43.284Z,5.27
2019-02-28T06:00:15.838Z,5.37
2019-02-28T06:02:44.472Z,5.46
2019-02-28T06:05:13.154Z,5.53
2019-02-28T06:07:41.835Z,5.61
2019-02-28T06:10:12.365Z,5.76
2019-02-28T06:12:43.947Z,5.82
2019-02-28T06:15:13.090Z,5.92
2019-02-28T06:17:41.708Z,6.04
2019-02-28T06:20:16.428Z,6.20
2019-02-28T06:22:42.653Z,6.29
2019-02-28T06:25:12.501Z,6.46
2019-02-28T06:27:42.312Z,6.60
2019-02-28T06:30:13.829Z,6.70
2019-02-28T06:32:42.383Z,6.87
2019-02-28T06:35:16.012Z,6.98
2019-02-28T06:37:41.517Z,7.08
2019-02-28T06:40:14.484Z,7.22
2019-02-28T06:42:43.436Z,7.42
2019-02-28T06:45:18.526Z,7.50
2019-02-28T06:47:49.670Z,7.66
2019-02-28T06:50:17.775Z,7.79
2019-02-28T06:52:46.357Z,7.81
2019-02-28T06:55:16.633Z,7.93
2019-02-28T06:57:46.680Z,8.10
2019-02-28T07:00:17.313Z,8.28
2019-02-28T07:02:46.044Z,8.47
2019-02-28T07:05:14.686Z,8.86
2019-02-28T07:07:45.606Z,8.86
2019-02-28T07:10:19.328Z,9.23
2019-02-28T07:12:49.374Z,9.32
2019-02-28T07:15:24.734Z,9.40
2019-02-28T07:17:52.633Z,9.69
2019-02-28T07:20:21.511Z,9.85
2019-02-28T07:22:55.574Z,9.97
2019-02-28T07:25:22.174Z,9.91
2019-02-28T07:27:53.623Z,9.88
2019-02-28T07:30:23.818Z,10.14
2019-02-28T07:32:52.372Z,10.43
2019-02-28T07:35:21.136Z,10.44
2019-02-28T07:37:53.218Z,10.55
2019-02-28T07:40:20.195Z,10.94
2019-02-28T07:42:48.856Z,11.05
2019-02-28T07:45:17.308Z,11.05
2019-02-28T07:47:51.687Z,11.23
2019-02-28T07:50:18.465Z,11.30
2019-02-28T07:52:48.602Z,11.39
2019-02-28T07:55:23.567Z,11.06
2019-02-28T07:57:56.291Z,10.93
2019-02-28T08:00:24.415Z,11.26
2019-02-28T08:02:53.043Z,11.57
2019-02-28T08:05:21.775Z,11.79
2019-02-28T08:07:52.303Z,12.20
2019-02-28T08:10:23.643Z,12.36
2019-02-28T08:12:52.253Z,12.10
2019-02-28T08:15:25.976Z,12.45
2019-02-28T08:17:54.591Z,12.54
2019-02-28T08:20:23.255Z,12.39
2019-02-28T08:22:52.004Z,12.88
2019-02-28T08:25:20.645Z,12.98
2019-02-28T08:27:49.310Z,13.08
2019-02-28T08:30:23.563Z,12.75
2019-02-28T08:32:52.230Z,12.83
2019-02-28T08:35:20.864Z,13.09
2019-02-28T08:37:55.586Z,13.11
2019-02-28T08:40:22.067Z,13.27
2019-02-28T08:42:50.784Z,13.51
2019-02-28T08:45:19.411Z,13.33
2019-02-28T08:47:48.167Z,13.43
2019-02-28T08:50:24.775Z,13.54
2019-02-28T08:52:56.150Z,14.16
2019-02-28T08:55:28.698Z,14.27
2019-02-28T08:57:58.116Z,13.85
2019-02-28T09:00:31.188Z,14.03
2019-02-28T09:02:56.196Z,14.52
2019-02-28T09:05:26.312Z,14.60
2019-02-28T09:07:55.331Z,14.77
2019-02-28T09:10:25.478Z,14.75
2019-02-28T09:12:54.159Z,15.18
2019-02-28T09:15:23.158Z,14.99
2019-02-28T09:17:51.880Z,15.10
2019-02-28T09:20:20.631Z,14.98
2019-02-28T09:22:49.277Z,15.08
2019-02-28T09:25:22.910Z,15.50
2019-02-28T09:27:51.828Z,15.44
2019-02-28T09:30:38.077Z,15.27
2019-02-28T09:33:06.772Z,15.46
2019-02-28T09:35:35.415Z,15.78
2019-02-28T09:38:08.056Z,15.61
2019-02-28T09:40:34.789Z,16.28
2019-02-28T09:43:03.427Z,15.99
2019-02-28T09:45:33.236Z,15.93
2019-02-28T09:48:02.408Z,16.57
2019-02-28T09:50:33.000Z,16.54
2019-02-28T09:53:01.493Z,17.17
2019-02-28T09:55:34.137Z,16.63
2019-02-28T09:58:00.525Z,16.28
2019-02-28T10:00:30.330Z,16.55
2019-02-28T10:02:59.013Z,16.46
2019-02-28T10:05:27.522Z,16.29
2019-02-28T10:08:01.529Z,16.89
2019-02-28T10:10:28.345Z,17.10
2019-02-28T10:12:57.043Z,16.92
2019-02-28T10:15:26.282Z,16.67
2019-02-28T10:17:55.019Z,17.01
2019-02-28T10:20:37.604Z,17.09
2019-02-28T10:23:06.278Z,17.16
2019-02-28T10:25:41.046Z,17.65
2019-02-28T10:28:05.492Z,17.83
2019-02-28T10:30:34.159Z,17.83
2019-02-28T10:33:04.418Z,17.91
2019-02-28T10:35:33.408Z,17.99
2019-02-28T10:38:03.732Z,18.12
2019-02-28T10:40:34.001Z,17.84
2019-02-28T10:43:02.631Z,18.16
2019-02-28T10:45:31.232Z,18.49
2019-02-28T10:48:02.916Z,18.41
2019-02-28T10:50:35.603Z,19.01
2019-02-28T10:53:06.099Z,19.05
2019-02-28T10:55:35.165Z,18.64
2019-02-28T10:58:04.218Z,18.16
2019-02-28T11:00:34.830Z,18.48
2019-02-28T11:03:03.787Z,19.00
2019-02-28T11:05:37.381Z,19.05
2019-02-28T11:08:09.803Z,19.51
2019-02-28T11:10:39.348Z,19.91
2019-02-28T11:13:10.920Z,19.87
2019-02-28T11:15:39.881Z,20.39
2019-02-28T11:18:10.023Z,19.66
2019-02-28T11:20:39.901Z,20.13
2019-02-28T11:23:14.320Z,20.34
2019-02-28T11:25:39.803Z,20.11
2019-02-28T11:28:08.981Z,20.32
2019-02-28T11:30:37.873Z,20.30
2019-02-28T11:33:06.967Z,20.46
2019-02-28T11:35:35.652Z,21.11
2019-02-28T11:38:05.629Z,20.99
2019-02-28T11:40:34.835Z,20.83
2019-02-28T11:43:04.258Z,20.86
2019-02-28T11:45:36.168Z,21.41
2019-02-28T11:48:10.552Z,21.32
2019-02-28T11:50:41.867Z,20.78
2019-02-28T11:53:09.829Z,20.91
2019-02-28T11:55:38.873Z,20.77
2019-02-28T11:58:07.499Z,21.08
2019-02-28T12:00:37.642Z,21.16
2019-02-28T12:03:06.376Z,21.20
2019-02-28T12:05:35.011Z,21.34
2019-02-28T12:08:09.354Z,21.57
2019-02-28T12:10:34.744Z,21.75
2019-02-28T12:13:03.449Z,22.12
2019-02-28T12:15:39.003Z,22.22
2019-02-28T12:18:07.963Z,22.20
2019-02-28T12:20:36.684Z,21.82
2019-02-28T12:23:05.323Z,22.06
2019-02-28T12:25:34.068Z,22.08
2019-02-28T12:28:06.341Z,22.83
2019-02-28T12:30:34.246Z,22.63
2019-02-28T12:33:03.076Z,22.73
2019-02-28T12:35:37.507Z,22.83
2019-02-28T12:38:02.256Z,22.44
2019-02-28T12:40:33.489Z,23.48
2019-02-28T12:43:05.318Z,22.73
2019-02-28T12:45:36.217Z,21.81
2019-02-28T12:48:05.104Z,21.85
2019-02-28T12:50:33.875Z,21.76
2019-02-28T12:53:02.521Z,22.19
2019-02-28T12:55:31.487Z,22.70
2019-02-28T12:58:00.496Z,22.62
2019-02-28T13:00:37.367Z,23.14
2019-02-28T13:03:06.461Z,22.39
2019-02-28T13:05:35.091Z,22.78
2019-02-28T13:08:05.873Z,22.74
2019-02-28T13:10:34.126Z,23.34
2019-02-28T13:13:06.854Z,22.72
2019-02-28T13:15:33.279Z,22.33
2019-02-28T13:18:07.504Z,22.45
2019-02-28T13:20:38.150Z,22.16
2019-02-28T13:23:06.997Z,22.36
2019-02-28T13:25:35.742Z,23.00
2019-02-28T13:28:06.009Z,23.30
2019-02-28T13:30:34.620Z,23.24
2019-02-28T13:33:03.395Z,22.69
2019-02-28T13:35:47.170Z,22.74
2019-02-28T13:38:33.781Z,22.66
2019-02-28T13:41:02.487Z,23.67
2019-02-28T13:43:32.098Z,23.24
2019-02-28T13:46:00.932Z,24.32
2019-02-28T13:48:32.988Z,25.61
2019-02-28T13:51:02.571Z,25.49
2019-02-28T13:53:31.791Z,25.35
2019-02-28T13:56:00.745Z,25.51
2019-02-28T13:58:29.578Z,25.32
2019-02-28T14:00:58.468Z,23.68
2019-02-28T14:03:27.533Z,23.82
2019-02-28T14:05:56.765Z,23.99
2019-02-28T14:08:26.001Z,23.22
2019-02-28T14:10:55.274Z,23.60
2019-02-28T14:13:23.920Z,23.46
2019-02-28T14:15:53.311Z,23.45
2019-02-28T14:18:23.965Z,22.32
2019-02-28T14:20:53.333Z,22.70
2019-02-28T14:23:22.216Z,23.05
2019-02-28T14:25:51.327Z,23.24
2019-02-28T14:28:20.268Z,23.11
2019-02-28T14:30:49.287Z,22.71
2019-02-28T14:33:19.378Z,23.08
2019-02-28T14:35:48.569Z,22.78
2019-02-28T14:38:17.192Z,22.20
2019-02-28T14:40:45.942Z,22.04
2019-02-28T14:43:14.594Z,21.70
2019-02-28T14:45:47.250Z,21.45
2019-02-28T14:48:17.017Z,21.82
2019-02-28T14:50:46.066Z,22.72
2019-02-28T14:53:16.668Z,23.08
2019-02-28T14:55:45.431Z,22.80
2019-02-28T14:58:14.087Z,22.94
2019-02-28T15:00:43.462Z,23.43
2019-02-28T15:03:12.408Z,22.75
2019-02-28T15:05:46.144Z,22.30
2019-02-28T15:08:16.168Z,22.72
2019-02-28T15:10:45.111Z,22.63
2019-02-28T15:13:13.699Z,22.28
2019-02-28T15:15:42.578Z,22.27
2019-02-28T15:18:14.558Z,22.11
2019-02-28T15:20:41.562Z,22.36
2019-02-28T15:23:10.362Z,22.36
2019-02-28T15:25:39.017Z,22.30
2019-02-28T15:28:10.673Z,22.44
2019-02-28T15:30:39.941Z,22.42
2019-02-28T15:33:09.629Z,22.54
2019-02-28T15:35:38.305Z,22.61
2019-02-28T15:38:09.144Z,22.69
2019-02-28T15:40:45.748Z,22.91
2019-02-28T15:43:17.419Z,23.14
2019-02-28T15:45:45.134Z,23.42
2019-02-28T15:48:13.801Z,23.35
2019-02-28T15:50:42.479Z,23.57
2019-02-28T15:53:14.429Z,23.16
2019-02-28T15:55:41.964Z,22.96
2019-02-28T15:58:10.772Z,22.94
2019-02-28T16:00:39.865Z,22.81
2019-02-28T16:03:08.607Z,22.28
2019-02-28T16:05:42.434Z,21.86
2019-02-28T16:08:10.505Z,20.86
2019-02-28T16:10:38.017Z,20.15
2019-02-28T16:13:07.967Z,19.70
2019-02-28T16:15:36.744Z,19.35
2019-02-28T16:18:08.666Z,19.03
2019-02-28T16:20:38.178Z,18.71
2019-02-28T16:23:06.836Z,18.55
2019-02-28T16:25:37.318Z,18.30
2019-02-28T16:28:08.873Z,18.09
2019-02-28T16:30:39.204Z,17.92
2019-02-28T16:33:08.142Z,17.82
2019-02-28T16:35:36.872Z,17.70
2019-02-28T16:38:06.396Z,17.58
2019-02-28T16:40:36.132Z,17.46
2019-02-28T16:43:04.875Z,17.35
2019-02-28T16:45:40.957Z,17.25
2019-02-28T16:48:08.734Z,17.17
2019-02-28T16:50:38.030Z,17.07
2019-02-28T16:53:06.674Z,16.98
2019-02-28T16:55:35.377Z,16.93
2019-02-28T16:58:04.259Z,16.81
2019-02-28T17:00:32.989Z,16.81
2019-02-28T17:03:04.064Z,16.78
2019-02-28T17:05:32.251Z,16.71
2019-02-28T17:08:00.974Z,16.67
2019-02-28T17:10:33.891Z,16.57
2019-02-28T17:13:13.060Z,16.52
2019-02-28T17:15:43.481Z,16.52
2019-02-28T17:18:21.652Z,16.43
2019-02-28T17:20:50.014Z,16.40
2019-02-28T17:23:18.813Z,16.37
2019-02-28T17:25:47.561Z,16.37
2019-02-28T17:28:23.876Z,16.35
2019-02-28T17:31:03.012Z,16.31
2019-02-28T17:33:32.068Z,16.27
2019-02-28T17:36:00.641Z,16.25
2019-02-28T17:38:32.303Z,16.23
2019-02-28T17:41:01.900Z,16.20
2019-02-28T17:43:30.898Z,16.14
2019-02-28T17:45:59.512Z,16.07
2019-02-28T17:48:56.873Z,16.04
2019-02-28T17:51:34.151Z,16.01
2019-02-28T17:54:20.923Z,15.96
2019-02-28T17:56:56.326Z,15.98
2019-02-28T17:59:50.712Z,15.97
2019-02-28T18:02:34.250Z,15.93
2019-02-28T18:05:14.883Z,15.89
2019-02-28T18:07:57.859Z,15.88
2019-02-28T18:10:47.980Z,15.85
2019-02-28T18:13:25.425Z,15.83
2019-02-28T18:16:12.147Z,15.86
2019-02-28T18:19:06.382Z,15.82
2019-02-28T18:21:53.224Z,15.83
2019-02-28T18:24:34.709Z,15.84
2019-02-28T18:27:22.899Z,15.81
2019-02-28T18:29:57.163Z,15.77
2019-02-28T18:32:25.798Z,15.77
2019-02-28T18:34:56.261Z,15.81
2019-02-28T18:37:25.451Z,15.77
2019-02-28T18:39:54.234Z,15.77
2019-02-28T18:42:23.292Z,15.78
2019-02-28T18:44:52.138Z,15.80
2019-02-28T18:47:20.840Z,15.82
2019-02-28T18:49:49.608Z,15.81
2019-02-28T18:52:20.171Z,15.82
2019-02-28T18:54:48.851Z,15.76
2019-02-28T18:57:17.712Z,15.80
2019-02-28T18:59:48.260Z,15.73
2019-02-28T19:02:17.059Z,15.70
2019-02-28T19:04:45.705Z,15.65
2019-02-28T19:07:14.407Z,15.64
2019-02-28T19:09:43.207Z,15.59
2019-02-28T19:12:12.007Z,15.53
2019-02-28T19:14:40.672Z,15.54
2019-02-28T19:17:09.292Z,15.51
2019-02-28T19:19:37.972Z,15.43
2019-02-28T19:22:08.052Z,15.37
2019-02-28T19:24:39.602Z,15.39
2019-02-28T19:27:08.281Z,15.33
2019-02-28T19:29:36.924Z,15.27
2019-02-28T19:32:05.690Z,15.21
2019-02-28T19:34:34.393Z,15.18
2019-02-28T19:37:03.024Z,15.13
2019-02-28T19:39:31.661Z,15.09
2019-02-28T19:42:00.425Z,15.09
2019-02-28T19:44:29.089Z,15.03
2019-02-28T19:46:57.724Z,14.87
2019-02-28T19:49:26.322Z,14.74
2019-02-28T19:51:54.961Z,14.70
2019-02-28T19:54:25.104Z,14.71
2019-02-28T19:56:53.964Z,14.73
2019-02-28T19:59:24.069Z,14.84
2019-02-28T20:01:52.629Z,14.93
2019-02-28T20:04:21.545Z,14.89
2019-02-28T20:06:50.245Z,14.84
2019-02-28T20:09:19.273Z,14.96
2019-02-28T20:11:47.955Z,14.97
2019-02-28T20:14:16.588Z,14.98
2019-02-28T20:16:45.464Z,15.00
2019-02-28T20:19:14.222Z,14.98
2019-02-28T20:21:42.801Z,15.05
2019-02-28T20:24:11.513Z,15.12
2019-02-28T20:26:40.267Z,15.29
2019-02-28T20:29:08.996Z,15.28
2019-02-28T20:31:38.172Z,15.18
2019-02-28T20:34:07.334Z,15.09
2019-02-28T20:36:36.135Z,15.11
2019-02-28T20:39:07.059Z,15.12
2019-02-28T20:41:35.666Z,14.97
2019-02-28T20:44:04.426Z,14.92
2019-02-28T20:46:33.084Z,14.80
2019-02-28T20:49:01.942Z,14.69
2019-02-28T20:51:30.822Z,14.60
2019-02-28T20:53:59.689Z,14.52
2019-02-28T20:56:28.442Z,14.48
2019-02-28T20:58:57.358Z,14.47
2019-02-28T21:01:25.991Z,14.43
2019-02-28T21:03:56.693Z,14.41
2019-02-28T21:06:25.619Z,14.40
2019-02-28T21:08:55.971Z,14.35
2019-02-28T21:11:24.945Z,14.23
2019-02-28T21:13:53.681Z,14.10
2019-02-28T21:16:22.391Z,13.90
2019-02-28T21:18:51.103Z,13.89
2019-02-28T21:21:19.727Z,13.86
2019-02-28T21:23:48.362Z,13.89
2019-02-28T21:26:17.232Z,13.82
2019-02-28T21:28:47.516Z,13.75
2019-02-28T21:31:16.145Z,13.69
2019-02-28T21:33:44.810Z,13.60
2019-02-28T21:36:13.462Z,13.48
2019-02-28T21:38:42.382Z,13.39
2019-02-28T21:41:11.092Z,13.34
2019-02-28T21:43:39.874Z,13.21
2019-02-28T21:46:08.519Z,13.18
2019-02-28T21:48:37.201Z,13.10
2019-02-28T21:51:06.131Z,13.04
2019-02-28T21:53:34.609Z,13.02
2019-02-28T21:56:03.489Z,12.99
2019-02-28T21:58:32.084Z,12.98
2019-02-28T22:01:00.771Z,12.93
2019-02-28T22:03:29.448Z,12.89
2019-02-28T22:05:58.102Z,12.84
2019-02-28T22:08:26.822Z,12.83
2019-02-28T22:10:55.597Z,12.74
2019-02-28T22:13:24.358Z,12.67
2019-02-28T22:15:53.044Z,12.66
2019-02-28T22:18:21.742Z,12.60
2019-02-28T22:20:50.391Z,12.56
2019-02-28T22:23:18.968Z,12.54
2019-02-28T22:25:47.553Z,12.50
2019-02-28T22:28:16.170Z,12.48
2019-02-28T22:30:46.386Z,12.45
2019-02-28T22:33:19.538Z,12.43
2019-02-28T22:35:49.789Z,12.41
2019-02-28T22:38:18.393Z,12.40
2019-02-28T22:40:47.131Z,12.41
2019-02-28T22:43:15.682Z,12.42
2019-02-28T22:45:44.335Z,12.35
2019-02-28T22:48:13.181Z,12.30
2019-02-28T22:50:41.812Z,12.35
2019-02-28T22:53:10.543Z,12.34
2019-02-28T22:55:39.216Z,12.36
2019-02-28T22:58:09.839Z,12.32
2019-02-28T23:01:00.840Z,12.31
2019-02-28T23:03:31.563Z,12.30
2019-02-28T23:06:00.501Z,12.26
2019-02-28T23:08:29.385Z,12.22
2019-02-28T23:10:58.052Z,12.17
2019-02-28T23:13:26.687Z,12.25
2019-02-28T23:15:56.989Z,12.25
2019-02-28T23:18:25.616Z,12.27
2019-02-28T23:20:54.316Z,12.31
2019-02-28T23:23:23.025Z,12.36
2019-02-28T23:25:51.660Z,12.33
2019-02-28T23:28:32.196Z,12.28
2019-02-28T23:31:18.783Z,12.30
2019-02-28T23:33:47.820Z,12.31
2019-02-28T23:36:16.462Z,12.37
2019-02-28T23:38:45.045Z,12.36
2019-02-28T23:41:13.626Z,12.41
2019-02-28T23:43:42.260Z,12.44
2019-02-28T23:46:10.867Z,12.47
2019-02-28T23:48:42.422Z,12.52
2019-02-28T23:51:11.224Z,12.46
2019-02-28T23:53:39.860Z,12.47
2019-02-28T23:56:08.528Z,12.44
2019-02-28T23:58:37.110Z,12.41
